Time;durP1;ratioP1;P1;durP2;ratioP2;P2;SDS_P1;SDS_P2;PMS_P1;PMS_P2;Temp;Humidity;BMP_temperature;BMP_pressure;BME280_temperature;BME280_humidity;BME280_pressure;Samples;Min_cycle;Max_cycle;Signal;HPM_P1;HPM_P2
2024/03/07 00:02:10;;;;;;;;;;;8.00;99.90;;;;;;5035997;28;19913;-83
2024/03/07 00:04:36;;;;;;;;;;;8.00;99.90;;;;;;5034410;28;20424;-84
2024/03/07 00:07:03;;;;;;;;;;;8.00;99.90;;;;;;5023004;28;19916;-84
2024/03/07 00:09:31;;;;;;;;;;;8.00;99.90;;;;;;5032266;28;20047;-85
2024/03/07 00:11:57;;;;;;;;;;;8.00;99.90;;;;;;5034762;28;20002;-85
2024/03/07 00:14:26;;;;;;;;;;;8.00;99.90;;;;;;5042175;28;20298;-83
2024/03/07 00:16:55;;;;;;;;;;;8.00;99.90;;;;;;5037432;28;20341;-84
2024/03/07 00:19:21;;;;;;;;;;;7.90;99.90;;;;;;5039781;28;19920;-82
2024/03/07 00:21:47;;;;;;;;;;;7.90;99.90;;;;;;5044846;28;19908;-84
2024/03/07 00:24:13;;;;;;;;;;;7.90;95.30;;;;;;5049366;28;19910;-84
2024/03/07 00:26:40;;;;;;;;;;;7.90;91.10;;;;;;5042713;28;19948;-84
2024/03/07 00:29:06;;;;;;;;;;;7.80;51.00;;;;;;5041565;28;19924;-83
2024/03/07 00:31:32;;;;;;;;;;;7.80;54.00;;;;;;5042290;28;20379;-86
2024/03/07 00:33:58;;;;;;;;;;;7.80;46.80;;;;;;5048387;28;19971;-84
2024/03/07 00:36:24;;;;;;;;;;;7.70;35.70;;;;;;5039909;28;19963;-86
2024/03/07 00:38:49;;;;;;;;;;;7.70;61.80;;;;;;5035211;28;19910;-84
2024/03/07 00:41:16;;;;;;;;;;;7.70;47.20;;;;;;5035606;28;19963;-83
2024/03/07 00:43:42;;;;;;;;;;;7.60;24.20;;;;;;5034942;28;19932;-86
2024/03/07 00:46:08;;;;;;;;;;;7.60;43.10;;;;;;5048971;28;19917;-84
2024/03/07 00:48:33;;;;;;;;;;;7.60;58.40;;;;;;5041025;28;20000;-84
2024/03/07 00:50:59;;;;;;;;;;;7.50;97.50;;;;;;5036637;28;19920;-86
2024/03/07 00:53:24;;;;;;;;;;;7.50;99.90;;;;;;5043193;28;19908;-83
2024/03/07 00:55:49;;;;;;;;;;;7.50;99.90;;;;;;5047890;28;19910;-81
2024/03/07 00:58:15;;;;;;;;;;;7.40;99.90;;;;;;5038735;28;19944;-87
2024/03/07 01:00:42;;;;;;;;;;;7.40;99.90;;;;;;5046680;28;19909;-84
2024/03/07 01:03:10;;;;;;;;;;;7.30;99.90;;;;;;5042564;28;19917;-85
2024/03/07 01:05:36;;;;;;;;;;;7.20;99.90;;;;;;5038905;28;19913;-87
2024/03/07 01:08:02;;;;;;;;;;;7.20;99.90;;;;;;5058447;28;19916;-86
2024/03/07 01:10:28;;;;;;;;;;;7.20;99.90;;;;;;5057099;28;19912;-86
2024/03/07 01:12:57;;;;;;;;;;;7.10;99.90;;;;;;5031983;28;19909;-84
2024/03/07 01:15:23;;;;;;;;;;;7.00;99.90;;;;;;5038026;28;20012;-84
2024/03/07 01:17:48;;;;;;;;;;;7.00;99.90;;;;;;5033842;28;19957;-83
2024/03/07 01:20:14;;;;;;;;;;;7.00;99.90;;;;;;5030452;28;19913;-86
2024/03/07 01:22:39;;;;;;;;;;;7.00;99.90;;;;;;5033843;28;19909;-82
2024/03/07 01:25:06;;;;;;;;;;;7.00;99.90;;;;;;5033627;28;19909;-81
2024/03/07 01:27:32;;;;;;;;;;;6.90;99.90;;;;;;5035369;28;19909;-84
2024/03/07 01:29:57;;;;;;;;;;;6.90;99.90;;;;;;5037572;28;20001;-86
2024/03/07 01:32:23;;;;;;;;;;;6.90;99.90;;;;;;5038750;28;19914;-84
2024/03/07 01:34:48;;;;;;;;;;;6.90;99.90;;;;;;5035512;28;19920;-84
2024/03/07 01:37:14;;;;;;;;;;;6.90;99.90;;;;;;5035666;28;19913;-84
2024/03/07 01:39:39;;;;;;;;;;;6.90;99.90;;;;;;5045158;28;19909;-85
2024/03/07 01:42:05;;;;;;;;;;;6.90;99.90;;;;;;5037492;28;20350;-83
2024/03/07 01:44:32;;;;;;;;;;;6.90;99.90;;;;;;5037916;28;20012;-83
2024/03/07 01:47:03;;;;;;;;;;;6.80;99.90;;;;;;5038306;28;20003;-85
2024/03/07 01:49:32;;;;;;;;;;;6.80;99.90;;;;;;5044916;28;19967;-85
2024/03/07 01:51:58;;;;;;;;;;;6.80;99.90;;;;;;5046795;28;20035;-84
2024/03/07 01:54:24;;;;;;;;;;;6.80;99.90;;;;;;5038987;28;19994;-83
2024/03/07 01:56:50;;;;;;;;;;;6.80;99.90;;;;;;5037085;28;19932;-86
2024/03/07 01:59:16;;;;;;;;;;;6.70;99.90;;;;;;5046456;28;19976;-84
2024/03/07 02:01:42;;;;;;;;;;;6.70;99.90;;;;;;5049793;28;19917;-86
2024/03/07 02:04:08;;;;;;;;;;;6.70;99.90;;;;;;5052991;28;19917;-84
2024/03/07 02:06:34;;;;;;;;;;;6.70;99.90;;;;;;5052612;28;21334;-85
2024/03/07 02:09:00;;;;;;;;;;;6.70;99.90;;;;;;5044813;28;19913;-84
2024/03/07 02:11:25;;;;;;;;;;;6.70;99.90;;;;;;5040331;28;19909;-85
2024/03/07 02:13:51;;;;;;;;;;;6.60;99.90;;;;;;5040354;28;19913;-85
2024/03/07 02:16:16;;;;;;;;;;;6.60;99.90;;;;;;5052506;28;19913;-85
2024/03/07 02:18:42;;;;;;;;;;;6.60;99.90;;;;;;5052723;28;19917;-87
2024/03/07 02:21:08;;;;;;;;;;;6.60;99.90;;;;;;5040996;28;19923;-87
2024/03/07 02:23:34;;;;;;;;;;;6.60;99.90;;;;;;5046743;28;19916;-83
2024/03/07 02:26:00;;;;;;;;;;;6.50;99.90;;;;;;5043609;28;19913;-84
2024/03/07 02:28:25;;;;;;;;;;;6.50;99.90;;;;;;5038752;28;19936;-84
2024/03/07 02:30:51;;;;;;;;;;;6.50;99.90;;;;;;5056373;28;19909;-84
2024/03/07 02:33:16;;;;;;;;;;;6.50;99.90;;;;;;5049741;28;20449;-85
2024/03/07 02:35:42;;;;;;;;;;;6.50;99.90;;;;;;5049586;28;20366;-84
2024/03/07 02:38:08;;;;;;;;;;;6.40;99.90;;;;;;5046817;28;20010;-83
2024/03/07 02:40:33;;;;;;;;;;;6.40;99.90;;;;;;5037935;28;19920;-84
2024/03/07 02:42:59;;;;;;;;;;;6.40;99.90;;;;;;5046831;28;19910;-85
2024/03/07 02:45:25;;;;;;;;;;;6.30;99.90;;;;;;5038269;28;19909;-85
2024/03/07 02:47:51;;;;;;;;;;;6.20;1.00;;;;;;5038568;28;19909;-85
2024/03/07 02:50:17;;;;;;;;;;;6.10;1.00;;;;;;5057494;28;20003;-85
2024/03/07 02:52:42;;;;;;;;;;;6.10;1.00;;;;;;5049636;28;19948;-83
2024/03/07 02:55:10;;;;;;;;;;;6.10;1.00;;;;;;5045590;28;20056;-84
2024/03/07 02:57:36;;;;;;;;;;;6.10;1.00;;;;;;5045581;23;19932;-82
2024/03/07 03:00:02;;;;;;;;;;;6.10;1.00;;;;;;5047715;28;20000;-83
2024/03/07 03:02:28;;;;;;;;;;;6.10;1.00;;;;;;5044174;28;19909;-83
2024/03/07 03:04:54;;;;;;;;;;;6.10;1.00;;;;;;5042617;28;20261;-84
2024/03/07 03:07:20;;;;;;;;;;;6.10;1.00;;;;;;5058884;28;19909;-84
2024/03/07 03:09:46;;;;;;;;;;;6.10;1.00;;;;;;5049882;28;19934;-83
2024/03/07 03:12:11;;;;;;;;;;;6.10;1.00;;;;;;5043171;28;19995;-83
2024/03/07 03:14:37;;;;;;;;;;;6.00;1.00;;;;;;5058705;28;19916;-83
2024/03/07 03:17:03;;;;;;;;;;;6.00;1.00;;;;;;5047565;28;20003;-84
2024/03/07 03:19:28;;;;;;;;;;;6.00;1.00;;;;;;5064395;28;19908;-83
2024/03/07 03:21:55;;;;;;;;;;;6.00;1.00;;;;;;5059442;28;19913;-83
2024/03/07 03:24:21;;;;;;;;;;;6.00;1.00;;;;;;5049802;28;19931;-83
2024/03/07 03:26:47;;;;;;;;;;;5.90;1.00;;;;;;5051585;28;19913;-84
2024/03/07 03:29:13;;;;;;;;;;;5.90;1.00;;;;;;5063944;28;19909;-83
2024/03/07 03:31:39;;;;;;;;;;;5.90;1.00;;;;;;5060265;28;19913;-83
2024/03/07 03:34:05;;;;;;;;;;;5.90;1.00;;;;;;5059901;28;19959;-83
2024/03/07 03:36:30;;;;;;;;;;;5.90;1.00;;;;;;5053173;28;20545;-82
2024/03/07 03:38:56;;;;;;;;;;;5.90;1.00;;;;;;5043081;28;19959;-82
2024/03/07 03:41:22;;;;;;;;;;;5.90;1.00;;;;;;5037900;28;19913;-83
2024/03/07 03:43:48;;;;;;;;;;;5.90;1.00;;;;;;5040541;28;19966;-83
2024/03/07 03:46:13;;;;;;;;;;;5.90;1.00;;;;;;5038589;28;19953;-83
2024/03/07 03:48:41;;;;;;;;;;;5.90;1.00;;;;;;5040176;28;19913;-81
2024/03/07 03:51:08;;;;;;;;;;;5.90;1.00;;;;;;5044342;28;19964;-83
2024/03/07 03:53:33;;;;;;;;;;;5.90;1.00;;;;;;5040345;28;19909;-83
2024/03/07 03:55:59;;;;;;;;;;;5.90;1.00;;;;;;5040682;28;19913;-82
2024/03/07 03:58:25;;;;;;;;;;;5.80;1.00;;;;;;5037456;28;19924;-83
2024/03/07 04:00:50;;;;;;;;;;;5.80;1.00;;;;;;5040165;28;19921;-84
2024/03/07 04:03:16;;;;;;;;;;;5.70;1.00;;;;;;5059644;28;19955;-83
2024/03/07 04:05:41;;;;;;;;;;;5.70;1.00;;;;;;5045867;28;19917;-82
2024/03/07 04:08:07;;;;;;;;;;;5.70;1.00;;;;;;5050209;28;19909;-83
2024/03/07 04:10:33;;;;;;;;;;;5.70;1.00;;;;;;5061793;28;20433;-82
2024/03/07 04:12:58;;;;;;;;;;;5.60;1.00;;;;;;5060877;28;19908;-83
2024/03/07 04:15:26;;;;;;;;;;;5.60;1.00;;;;;;5039044;28;19917;-83
2024/03/07 04:17:52;;;;;;;;;;;5.60;1.00;;;;;;5054627;28;19913;-83
2024/03/07 04:20:18;;;;;;;;;;;5.60;1.00;;;;;;5051642;28;19963;-83
2024/03/07 04:22:43;;;;;;;;;;;5.60;1.00;;;;;;5057972;28;19915;-84
2024/03/07 04:25:09;;;;;;;;;;;5.50;1.00;;;;;;5062574;28;19936;-83
2024/03/07 04:27:36;;;;;;;;;;;5.50;1.00;;;;;;5061464;28;19909;-81
2024/03/07 04:30:05;;;;;;;;;;;5.50;1.00;;;;;;5051778;28;19963;-84
2024/03/07 04:32:31;;;;;;;;;;;5.50;1.00;;;;;;5050440;28;19976;-81
2024/03/07 04:34:57;;;;;;;;;;;5.50;1.00;;;;;;5062748;28;19917;-84
2024/03/07 04:37:23;;;;;;;;;;;5.50;1.00;;;;;;5061300;28;19968;-82
2024/03/07 04:39:48;;;;;;;;;;;5.50;1.00;;;;;;5063084;28;19939;-85
2024/03/07 04:42:14;;;;;;;;;;;5.50;1.00;;;;;;5061740;28;20190;-83
2024/03/07 04:44:39;;;;;;;;;;;5.40;1.00;;;;;;5045251;28;19913;-82
2024/03/07 04:47:05;;;;;;;;;;;5.40;1.00;;;;;;5042299;28;19948;-84
2024/03/07 04:49:32;;;;;;;;;;;5.40;1.00;;;;;;5034194;28;19920;-82
2024/03/07 04:51:58;;;;;;;;;;;5.40;1.00;;;;;;5038562;28;19981;-84
2024/03/07 04:54:24;;;;;;;;;;;5.30;1.00;;;;;;5038416;28;19928;-83
2024/03/07 04:56:50;;;;;;;;;;;5.30;1.00;;;;;;5035886;28;20319;-83
2024/03/07 04:59:16;;;;;;;;;;;5.30;1.00;;;;;;5042334;28;19921;-84
2024/03/07 05:01:42;;;;;;;;;;;5.30;1.00;;;;;;5043962;28;19999;-82
2024/03/07 05:04:08;;;;;;;;;;;5.30;1.00;;;;;;5039435;28;19941;-84
2024/03/07 05:06:34;;;;;;;;;;;5.20;1.00;;;;;;5044429;28;19939;-83
2024/03/07 05:09:03;;;;;;;;;;;5.20;1.00;;;;;;5038321;28;19909;-83
2024/03/07 05:11:29;;;;;;;;;;;5.20;1.00;;;;;;5042104;28;19988;-84
2024/03/07 05:13:54;;;;;;;;;;;5.20;1.00;;;;;;5042104;28;19957;-83
2024/03/07 05:16:20;;;;;;;;;;;5.10;1.00;;;;;;5043022;28;19909;-82
2024/03/07 05:18:46;;;;;;;;;;;5.10;1.00;;;;;;5052823;28;19986;-83
2024/03/07 05:23:57;;;;;;;;;;;5.00;1.00;;;;;;5046619;28;20594;-83
2024/03/07 05:26:23;;;;;;;;;;;4.90;1.00;;;;;;5066462;28;19982;-84
2024/03/07 05:28:48;;;;;;;;;;;4.90;1.00;;;;;;5066221;28;19908;-83
2024/03/07 05:31:14;;;;;;;;;;;4.90;1.00;;;;;;5065677;28;19908;-82
2024/03/07 05:33:40;;;;;;;;;;;4.80;1.00;;;;;;5053380;28;19913;-83
2024/03/07 05:36:15;;;;;;;;;;;4.80;1.00;;;;;;5057141;28;19943;-84
2024/03/07 05:38:43;;;;;;;;;;;4.80;1.00;;;;;;5048505;28;19924;-83
2024/03/07 05:41:14;;;;;;;;;;;4.70;1.00;;;;;;5045472;28;19920;-82
2024/03/07 05:43:40;;;;;;;;;;;4.70;1.00;;;;;;5055670;28;19913;-83
2024/03/07 05:46:06;;;;;;;;;;;4.70;1.00;;;;;;5052132;28;19919;-85
2024/03/07 05:48:32;;;;;;;;;;;4.70;1.00;;;;;;5040399;28;19984;-85
2024/03/07 05:50:58;;;;;;;;;;;4.70;1.00;;;;;;5041179;28;19909;-85
2024/03/07 05:53:24;;;;;;;;;;;4.70;1.00;;;;;;5052141;28;20003;-84
2024/03/07 05:55:50;;;;;;;;;;;4.70;1.00;;;;;;5051021;28;19917;-83
2024/03/07 05:58:16;;;;;;;;;;;4.70;1.00;;;;;;5047726;28;19928;-84
2024/03/07 06:00:49;;;;;;;;;;;4.70;1.00;;;;;;5042186;28;19909;-83
2024/03/07 06:03:17;;;;;;;;;;;4.60;1.00;;;;;;5040127;28;19913;-84
2024/03/07 06:05:43;;;;;;;;;;;4.60;1.00;;;;;;5058598;28;20302;-83
2024/03/07 06:08:08;;;;;;;;;;;4.60;1.00;;;;;;5058084;28;19916;-81
2024/03/07 06:10:34;;;;;;;;;;;4.60;1.00;;;;;;5041755;28;19974;-83
2024/03/07 06:12:59;;;;;;;;;;;4.60;1.00;;;;;;5042258;28;19945;-84
2024/03/07 06:15:25;;;;;;;;;;;4.60;1.00;;;;;;5057656;28;19952;-81
2024/03/07 06:17:50;;;;;;;;;;;4.60;1.00;;;;;;5057629;28;19909;-83
2024/03/07 06:20:25;;;;;;;;;;;4.60;1.00;;;;;;5057583;28;20346;-82
2024/03/07 06:22:52;;;;;;;;;;;4.70;1.00;;;;;;5033265;28;20298;-84
2024/03/07 06:25:20;;;;;;;;;;;4.70;1.00;;;;;;5054992;28;19916;-83
2024/03/07 06:27:48;;;;;;;;;;;4.80;1.00;;;;;;5046486;28;19913;-83
2024/03/07 06:30:17;;;;;;;;;;;4.80;1.00;;;;;;5045559;28;19913;-84
2024/03/07 06:32:43;;;;;;;;;;;4.80;1.00;;;;;;5059726;28;19976;-84
2024/03/07 06:35:09;;;;;;;;;;;4.90;1.00;;;;;;5057514;28;19917;-83
2024/03/07 06:37:35;;;;;;;;;;;4.90;1.00;;;;;;5056068;28;19919;-83
2024/03/07 06:40:03;;;;;;;;;;;5.00;1.00;;;;;;5047122;28;19913;-84
2024/03/07 06:42:32;;;;;;;;;;;5.10;1.00;;;;;;5044717;28;19913;-84
2024/03/07 06:44:58;;;;;;;;;;;5.20;1.00;;;;;;5045180;28;19909;-84
2024/03/07 06:47:24;;;;;;;;;;;5.30;1.00;;;;;;5054786;28;20358;-85
2024/03/07 06:49:52;;;;;;;;;;;5.30;1.00;;;;;;5064835;28;20377;-84
2024/03/07 06:52:18;;;;;;;;;;;5.40;1.00;;;;;;5044323;28;19913;-86
2024/03/07 06:54:43;;;;;;;;;;;5.50;1.00;;;;;;5050256;28;20387;-86
2024/03/07 06:57:09;;;;;;;;;;;5.60;1.00;;;;;;5050850;28;19952;-85
2024/03/07 06:59:36;;;;;;;;;;;5.70;1.00;;;;;;5043042;28;19917;-84
2024/03/07 07:02:03;;;;;;;;;;;5.90;1.00;;;;;;5045371;28;19935;-83
2024/03/07 07:04:41;;;;;;;;;;;6.10;1.00;;;;;;5039614;28;19983;-83
2024/03/07 07:07:12;;;;;;;;;;;6.30;1.00;;;;;;5040639;28;19977;-82
2024/03/07 07:09:38;;;;;;;;;;;6.50;1.00;;;;;;5038495;28;19923;-84
2024/03/07 07:12:04;;;;;;;;;;;6.80;99.90;;;;;;5050200;28;19944;-83
2024/03/07 07:14:29;;;;;;;;;;;6.90;99.90;;;;;;5056459;28;19925;-83
2024/03/07 07:16:55;;;;;;;;;;;7.10;99.90;;;;;;5050052;28;19951;-83
2024/03/07 07:19:21;;;;;;;;;;;7.30;99.90;;;;;;5043935;28;19913;-83
2024/03/07 07:21:49;;;;;;;;;;;7.60;1.00;;;;;;5046362;28;20007;-84
2024/03/07 07:24:15;;;;;;;;;;;7.90;99.90;;;;;;5057603;28;19913;-84
2024/03/07 07:26:40;;;;;;;;;;;8.10;99.90;;;;;;5048750;28;19936;-83
2024/03/07 07:29:06;;;;;;;;;;;8.20;1.00;;;;;;5057413;28;20019;-84
2024/03/07 07:31:32;;;;;;;;;;;8.20;99.90;;;;;;5062325;28;19920;-85
2024/03/07 07:33:58;;;;;;;;;;;8.20;99.90;;;;;;5049726;28;20011;-85
2024/03/07 07:36:23;;;;;;;;;;;8.20;99.90;;;;;;5045501;28;19963;-83
2024/03/07 07:38:49;;;;;;;;;;;8.30;99.90;;;;;;5047777;28;19917;-84
2024/03/07 07:41:14;;;;;;;;;;;8.50;99.90;;;;;;5051671;28;19967;-84
2024/03/07 07:43:40;;;;;;;;;;;9.00;99.90;;;;;;5045056;28;19909;-84
2024/03/07 07:46:06;;;;;;;;;;;9.50;1.00;;;;;;5058657;28;19999;-83
2024/03/07 07:48:31;;;;;;;;;;;10.60;99.90;;;;;;5040539;28;19917;-83
2024/03/07 07:50:57;;;;;;;;;;;12.60;99.90;;;;;;5037885;28;19916;-84
2024/03/07 07:53:22;;;;;;;;;;;14.80;1.00;;;;;;5039209;28;19913;-84
2024/03/07 07:55:48;;;;;;;;;;;16.90;1.00;;;;;;5043454;28;20401;-84
2024/03/07 07:58:14;;;;;;;;;;;18.40;99.90;;;;;;5039183;28;19917;-82
2024/03/07 08:00:42;;;;;;;;;;;19.50;99.90;;;;;;5042985;28;20279;-83
2024/03/07 08:03:09;;;;;;;;;;;20.50;99.90;;;;;;5047218;28;19909;-82
2024/03/07 08:05:35;;;;;;;;;;;21.20;99.90;;;;;;5053559;28;19917;-83
2024/03/07 08:08:06;;;;;;;;;;;21.70;99.90;;;;;;5041321;28;19913;-84
2024/03/07 08:10:32;;;;;;;;;;;22.30;99.90;;;;;;5050146;28;19917;-84
2024/03/07 08:12:58;;;;;;;;;;;22.80;99.90;;;;;;5044655;28;19984;-84
2024/03/07 08:15:25;;;;;;;;;;;23.00;99.90;;;;;;5044955;28;19939;-85
2024/03/07 08:17:51;;;;;;;;;;;23.40;99.90;;;;;;5044599;28;19920;-84
2024/03/07 08:20:18;;;;;;;;;;;23.60;99.90;;;;;;5032086;28;19917;-86
2024/03/07 08:22:44;;;;;;;;;;;23.80;99.90;;;;;;5037135;28;19975;-85
2024/03/07 08:25:12;;;;;;;;;;;23.70;99.90;;;;;;5049931;28;19909;-82
2024/03/07 08:27:38;;;;;;;;;;;23.70;99.90;;;;;;5039207;28;19913;-84
2024/03/07 08:30:06;;;;;;;;;;;23.70;99.90;;;;;;5041228;28;19968;-84
2024/03/07 08:32:34;;;;;;;;;;;23.70;99.90;;;;;;5031859;28;19917;-84
2024/03/07 08:35:01;;;;;;;;;;;24.10;99.90;;;;;;5043274;28;20368;-84
2024/03/07 08:37:26;;;;;;;;;;;23.90;99.90;;;;;;5040221;28;20402;-84
2024/03/07 08:39:52;;;;;;;;;;;23.80;99.90;;;;;;5036726;28;19913;-83
2024/03/07 08:42:17;;;;;;;;;;;22.00;99.90;;;;;;5032506;28;19920;-85
2024/03/07 08:44:43;;;;;;;;;;;21.40;99.90;;;;;;5029853;28;19916;-83
2024/03/07 08:47:09;;;;;;;;;;;21.20;99.90;;;;;;5040040;28;19944;-85
2024/03/07 08:49:35;;;;;;;;;;;20.50;99.90;;;;;;5044048;28;19909;-82
2024/03/07 08:52:01;;;;;;;;;;;20.50;99.90;;;;;;5031773;28;19920;-81
2024/03/07 08:54:26;;;;;;;;;;;21.20;99.90;;;;;;5033851;28;19921;-80
2024/03/07 08:56:52;;;;;;;;;;;22.40;99.90;;;;;;5034400;28;19909;-83
2024/03/07 08:59:17;;;;;;;;;;;22.60;99.90;;;;;;5061250;23;19929;-84
2024/03/07 09:01:43;;;;;;;;;;;23.00;99.90;;;;;;5073490;28;20329;-84
2024/03/07 09:04:09;;;;;;;;;;;23.30;99.90;;;;;;5061234;28;19955;-84
2024/03/07 09:06:34;;;;;;;;;;;23.70;99.90;;;;;;5070278;28;19920;-84
2024/03/07 09:09:00;;;;;;;;;;;24.10;99.90;;;;;;5070689;28;19909;-84
2024/03/07 09:11:25;;;;;;;;;;;24.50;99.90;;;;;;5070320;28;19940;-83
2024/03/07 09:13:51;;;;;;;;;;;24.60;99.90;;;;;;5069259;28;20359;-84
2024/03/07 09:16:16;;;;;;;;;;;24.60;99.90;;;;;;5069102;28;19912;-84
2024/03/07 09:18:42;;;;;;;;;;;25.00;99.90;;;;;;5068912;28;19909;-84
2024/03/07 09:21:09;;;;;;;;;;;25.30;99.90;;;;;;5060353;28;19916;-83
2024/03/07 09:23:34;;;;;;;;;;;25.70;99.90;;;;;;5061491;28;19999;-84
2024/03/07 09:25:59;;;;;;;;;;;25.90;99.90;;;;;;5072069;28;19912;-85
2024/03/07 09:28:25;;;;;;;;;;;26.00;99.90;;;;;;5066251;28;19920;-83
2024/03/07 09:30:51;;;;;;;;;;;26.10;99.90;;;;;;5070658;28;20011;-84
2024/03/07 09:33:19;;;;;;;;;;;26.20;99.90;;;;;;5064964;28;20379;-83
2024/03/07 09:35:45;;;;;;;;;;;26.70;99.90;;;;;;5066442;28;19940;-80
2024/03/07 09:38:11;;;;;;;;;;;27.20;99.90;;;;;;5060735;28;19912;-81
2024/03/07 09:40:37;;;;;;;;;;;27.50;99.90;;;;;;5062121;28;20335;-81
2024/03/07 09:43:03;;;;;;;;;;;27.80;99.90;;;;;;5053359;28;19964;-81
2024/03/07 09:45:29;;;;;;;;;;;27.70;99.90;;;;;;5071373;28;19913;-82
2024/03/07 09:47:55;;;;;;;;;;;27.50;99.90;;;;;;5064217;28;20279;-83
2024/03/07 09:50:24;;;;;;;;;;;26.90;99.90;;;;;;5064728;28;19916;-83
2024/03/07 09:52:52;;;;;;;;;;;26.50;99.90;;;;;;5064166;28;20002;-82
2024/03/07 09:55:21;;;;;;;;;;;26.50;99.90;;;;;;5057454;28;19916;-82
2024/03/07 09:57:47;;;;;;;;;;;26.60;99.90;;;;;;5056940;28;19940;-82
2024/03/07 10:00:22;;;;;;;;;;;26.50;99.90;;;;;;5066470;28;20263;-83
2024/03/07 10:02:48;;;;;;;;;;;26.50;99.90;;;;;;5054917;28;20374;-82
2024/03/07 10:05:15;;;;;;;;;;;26.10;99.90;;;;;;5062065;28;19909;-83
2024/03/07 10:07:40;;;;;;;;;;;26.20;99.90;;;;;;5065922;28;20931;-83
2024/03/07 10:10:11;;;;;;;;;;;26.20;99.90;;;;;;5061691;28;19909;-83
2024/03/07 10:12:40;;;;;;;;;;;26.20;99.90;;;;;;5059597;28;19909;-82
2024/03/07 10:15:06;;;;;;;;;;;24.90;99.90;;;;;;5063866;28;19912;-82
2024/03/07 10:17:31;;;;;;;;;;;22.80;99.90;;;;;;5063837;28;19919;-82
2024/03/07 10:20:00;;;;;;;;;;;22.10;99.90;;;;;;5059806;28;19913;-82
2024/03/07 10:22:26;;;;;;;;;;;22.60;99.90;;;;;;5071503;28;19913;-82
2024/03/07 10:24:52;;;;;;;;;;;23.10;99.90;;;;;;5061248;28;19909;-81
2024/03/07 10:27:21;;;;;;;;;;;22.90;99.90;;;;;;5058378;28;19924;-82
2024/03/07 10:29:52;;;;;;;;;;;22.90;99.90;;;;;;5068175;28;19919;-82
2024/03/07 10:32:25;;;;;;;;;;;22.20;99.90;;;;;;5069220;28;20425;-81
2024/03/07 10:34:50;;;;;;;;;;;20.70;99.90;;;;;;5060289;28;19912;-82
2024/03/07 10:37:17;;;;;;;;;;;20.70;99.90;;;;;;5063376;28;19985;-81
2024/03/07 10:39:51;;;;;;;;;;;20.60;99.90;;;;;;5062038;28;19940;-82
2024/03/07 10:42:18;;;;;;;;;;;19.60;99.90;;;;;;5065933;28;19950;-82
2024/03/07 10:44:44;;;;;;;;;;;19.80;99.90;;;;;;5059434;28;20337;-82
2024/03/07 10:47:17;;;;;;;;;;;19.50;99.90;;;;;;5061516;28;19908;-80
2024/03/07 10:50:04;;;;;;;;;;;19.10;99.90;;;;;;5058854;28;19944;-80
2024/03/07 10:52:39;;;;;;;;;;;18.70;99.90;;;;;;5054239;28;19917;-82
2024/03/07 10:55:11;;;;;;;;;;;17.90;99.90;;;;;;5064452;28;19920;-80
2024/03/07 10:57:45;;;;;;;;;;;17.20;99.90;;;;;;5057232;28;20019;-81
2024/03/07 11:00:29;;;;;;;;;;;16.30;99.90;;;;;;5060918;28;19917;-81
2024/03/07 11:02:55;;;;;;;;;;;15.40;99.90;;;;;;5066976;28;19908;-81
2024/03/07 11:05:24;;;;;;;;;;;15.00;99.90;;;;;;5063214;28;20260;-83
2024/03/07 11:07:50;;;;;;;;;;;14.40;99.90;;;;;;5058870;28;19913;-81
2024/03/07 11:10:17;;;;;;;;;;;14.20;99.90;;;;;;5069025;28;19951;-82
2024/03/07 11:12:43;;;;;;;;;;;14.00;99.90;;;;;;5082896;28;19908;-82
2024/03/07 11:15:14;;;;;;;;;;;13.70;99.90;;;;;;5083394;28;19912;-81
2024/03/07 11:17:44;;;;;;;;;;;13.60;99.90;;;;;;5084580;28;19912;-82
2024/03/07 11:20:38;;;;;;;;;;;13.90;99.90;;;;;;5074917;28;19921;-81
2024/03/07 11:23:23;;;;;;;;;;;13.90;99.90;;;;;;5048272;28;19912;-82
2024/03/07 11:25:48;;;;;;;;;;;15.60;99.90;;;;;;5059673;28;19908;-80
2024/03/07 11:28:16;;;;;;;;;;;17.30;99.90;;;;;;5059940;28;19970;-81
2024/03/07 11:30:41;;;;;;;;;;;18.40;99.90;;;;;;5077265;28;19920;-82
2024/03/07 11:33:06;;;;;;;;;;;19.50;99.90;;;;;;5068699;28;19912;-83
2024/03/07 11:35:35;;;;;;;;;;;20.20;99.90;;;;;;5060741;28;19958;-84
2024/03/07 11:38:04;;;;;;;;;;;20.80;99.90;;;;;;5071919;28;19909;-84
2024/03/07 11:40:29;;;;;;;;;;;21.00;99.90;;;;;;5064957;28;19913;-84
2024/03/07 11:43:04;;;;;;;;;;;21.20;99.90;;;;;;5059573;28;19916;-83
2024/03/07 11:45:33;;;;;;;;;;;21.50;99.90;;;;;;5068915;28;19913;-83
2024/03/07 11:48:00;;;;;;;;;;;21.70;99.90;;;;;;5072314;28;19976;-84
2024/03/07 11:50:26;;;;;;;;;;;21.50;99.90;;;;;;5062358;28;19919;-85
2024/03/07 11:52:52;;;;;;;;;;;21.90;99.90;;;;;;5067549;28;19912;-82
2024/03/07 11:55:19;;;;;;;;;;;22.20;99.90;;;;;;5062500;28;19988;-83
2024/03/07 11:57:44;;;;;;;;;;;21.40;99.90;;;;;;5064180;28;19913;-83
2024/03/07 12:00:10;;;;;;;;;;;20.30;99.90;;;;;;5059364;28;19947;-83
2024/03/07 12:02:39;;;;;;;;;;;19.50;99.90;;;;;;5059212;28;20294;-83
2024/03/07 12:05:05;;;;;;;;;;;18.60;99.90;;;;;;5061895;28;19966;-82
2024/03/07 12:07:31;;;;;;;;;;;17.80;99.90;;;;;;5066141;28;19917;-82
2024/03/07 12:09:56;;;;;;;;;;;16.90;99.90;;;;;;5064023;28;19920;-83
2024/03/07 12:12:22;;;;;;;;;;;16.30;99.90;;;;;;5065423;28;19916;-84
2024/03/07 12:14:48;;;;;;;;;;;16.00;99.90;;;;;;5057135;28;19920;-81
2024/03/07 12:17:16;;;;;;;;;;;15.60;99.90;;;;;;5056893;28;19913;-82
2024/03/07 12:19:42;;;;;;;;;;;15.20;99.90;;;;;;5056329;28;19908;-82
2024/03/07 12:22:14;;;;;;;;;;;15.10;99.90;;;;;;5061780;28;20409;-83
2024/03/07 12:24:40;;;;;;;;;;;15.00;99.90;;;;;;5056859;28;20378;-82
2024/03/07 12:27:10;;;;;;;;;;;15.20;99.90;;;;;;5056702;28;19927;-80
2024/03/07 12:29:39;;;;;;;;;;;15.30;99.90;;;;;;5057224;28;19909;-82
2024/03/07 12:32:08;;;;;;;;;;;15.10;99.90;;;;;;5055445;28;19964;-82
2024/03/07 12:34:40;;;;;;;;;;;14.80;99.90;;;;;;5053821;28;19921;-81
2024/03/07 12:37:09;;;;;;;;;;;14.80;99.90;;;;;;5050449;28;19971;-82
2024/03/07 12:39:46;;;;;;;;;;;14.60;99.90;;;;;;5056461;28;19916;-82
2024/03/07 12:42:14;;;;;;;;;;;14.70;99.90;;;;;;5057118;28;19916;-80
2024/03/07 12:44:45;;;;;;;;;;;14.70;99.90;;;;;;5063597;28;19944;-81
2024/03/07 12:47:14;;;;;;;;;;;14.70;99.90;;;;;;5057056;28;19909;-81
2024/03/07 12:49:40;;;;;;;;;;;15.00;99.90;;;;;;5074098;28;19920;-83
2024/03/07 12:52:07;;;;;;;;;;;16.00;99.90;;;;;;5060601;28;19916;-82
2024/03/07 12:54:40;;;;;;;;;;;17.10;99.90;;;;;;5058993;28;19921;-82
2024/03/07 12:57:08;;;;;;;;;;;17.80;99.90;;;;;;5055898;28;19955;-81
2024/03/07 12:59:40;;;;;;;;;;;18.50;99.90;;;;;;5066590;28;19920;-83
2024/03/07 13:02:09;;;;;;;;;;;18.90;99.90;;;;;;5059145;28;19909;-83
2024/03/07 13:04:37;;;;;;;;;;;19.40;99.90;;;;;;5057720;28;19909;-83
2024/03/07 13:07:04;;;;;;;;;;;19.90;99.90;;;;;;5055835;28;19960;-83
2024/03/07 13:09:33;;;;;;;;;;;20.40;99.90;;;;;;5064623;28;19912;-82
2024/03/07 13:12:00;;;;;;;;;;;20.80;99.90;;;;;;5060437;28;19916;-83
2024/03/07 13:14:34;;;;;;;;;;;21.20;99.90;;;;;;5059827;28;20329;-83
2024/03/07 13:17:04;;;;;;;;;;;21.40;99.90;;;;;;5061653;28;19920;-83
2024/03/07 13:19:30;;;;;;;;;;;21.30;99.90;;;;;;5073695;28;19917;-82
2024/03/07 13:21:55;;;;;;;;;;;21.00;99.90;;;;;;5074537;28;19913;-82
2024/03/07 13:24:21;;;;;;;;;;;20.50;99.90;;;;;;5061860;28;19999;-82
2024/03/07 13:26:48;;;;;;;;;;;19.80;99.90;;;;;;5055742;28;19913;-82
2024/03/07 13:29:14;;;;;;;;;;;18.80;99.90;;;;;;5057392;28;19909;-82
2024/03/07 13:31:42;;;;;;;;;;;17.90;99.90;;;;;;5056695;28;20375;-83
2024/03/07 13:34:12;;;;;;;;;;;17.10;99.90;;;;;;5065699;28;19956;-83
2024/03/07 13:36:40;;;;;;;;;;;16.40;99.90;;;;;;5057439;28;19909;-80
2024/03/07 13:39:10;;;;;;;;;;;15.90;99.90;;;;;;5059033;28;19913;-83
2024/03/07 13:41:36;;;;;;;;;;;15.50;99.90;;;;;;5059972;28;19913;-81
2024/03/07 13:44:02;;;;;;;;;;;15.20;99.90;;;;;;5056541;28;19913;-80
2024/03/07 13:46:29;;;;;;;;;;;14.90;99.90;;;;;;5062021;28;19920;-83
2024/03/07 13:48:54;;;;;;;;;;;14.60;99.90;;;;;;5065155;28;19966;-83
2024/03/07 13:51:20;;;;;;;;;;;14.40;99.90;;;;;;5063501;28;19908;-82
2024/03/07 13:53:50;;;;;;;;;;;14.30;99.90;;;;;;5079237;28;20271;-80
2024/03/07 13:56:35;;;;;;;;;;;14.70;99.90;;;;;;5068054;28;19924;-83
2024/03/07 13:59:03;;;;;;;;;;;15.50;99.90;;;;;;5064805;28;19912;-83
2024/03/07 14:01:30;;;;;;;;;;;15.50;99.90;;;;;;5073486;28;20461;-84
2024/03/07 14:04:03;;;;;;;;;;;15.30;99.90;;;;;;5065568;28;20451;-82
2024/03/07 14:06:44;;;;;;;;;;;15.00;99.90;;;;;;5063935;28;19955;-82
2024/03/07 14:09:28;;;;;;;;;;;14.60;99.90;;;;;;5063816;28;19963;-83
2024/03/07 14:11:53;;;;;;;;;;;14.30;99.90;;;;;;5078367;28;19908;-83
2024/03/07 14:14:32;;;;;;;;;;;14.00;99.90;;;;;;5060048;28;19966;-83
2024/03/07 14:17:17;;;;;;;;;;;13.80;99.90;;;;;;5070400;28;19923;-84
2024/03/07 14:19:58;;;;;;;;;;;13.50;99.90;;;;;;5071947;28;19912;-83
2024/03/07 14:22:27;;;;;;;;;;;13.20;99.90;;;;;;5075932;28;19999;-83
2024/03/07 14:25:16;;;;;;;;;;;13.00;99.90;;;;;;5081040;28;19908;-84
2024/03/07 14:27:51;;;;;;;;;;;12.80;99.90;;;;;;5071268;28;19909;-84
2024/03/07 14:30:35;;;;;;;;;;;12.60;99.90;;;;;;5072910;28;19916;-83
2024/03/07 14:33:01;;;;;;;;;;;12.40;99.90;;;;;;5078150;28;19912;-82